Time;durP1;ratioP1;P1;durP2;ratioP2;P2;SDS_P1;SDS_P2;PMS_P1;PMS_P2;Temp;Humidity;BMP_temperature;BMP_pressure;BME280_temperature;BME280_humidity;BME280_pressure;Samples;Min_cycle;Max_cycle;Signal;HPM_P1;HPM_P2
2021/11/08 00:01:49;;;;;;;1.58;0.98;;;;;;;3.41;50.13;92398.63;4979058;28;20050;-95
2021/11/08 00:04:36;;;;;;;1.25;1.00;;;;;;;3.51;50.98;92410.88;4974089;28;20051;-93
2021/11/08 00:07:47;;;;;;;1.10;0.88;;;;;;;3.41;50.11;92397.88;4959212;28;20043;-92
2021/11/08 00:10:28;;;;;;;;;;;;;;;;;;;;;
2021/11/08 00:13:20;;;;;;;1.45;1.00;;;;;;;3.35;49.79;92381.50;4973096;28;20547;-93
2021/11/08 00:19:50;;;;;;;2.60;1.13;;;;;;;3.37;50.18;92384.63;4976852;28;20035;-93
2021/11/08 00:22:46;;;;;;;;;;;;;;;;;;;;;
2021/11/08 00:28:29;;;;;;;2.10;1.27;;;;;;;3.39;50.95;92399.91;4969332;28;20046;-92
2021/11/08 00:31:20;;;;;;;1.45;0.90;;;;;;;3.27;50.90;92385.31;4958612;29;20395;-92
2021/11/08 00:34:02;;;;;;;1.13;0.85;;;;;;;3.35;51.11;92389.25;4969728;28;20077;-93
2021/11/08 00:36:56;;;;;;;;;;;;;;;;;;;;;
2021/11/08 00:40:02;;;;;;;1.65;1.08;;;;;;;3.29;51.39;92361.78;4993144;28;20337;-92
2021/11/08 00:43:05;;;;;;;1.27;1.02;;;;;;;3.29;51.23;92364.38;4991619;28;20515;-92
2021/11/08 00:45:45;;;;;;;1.73;1.17;;;;;;;3.31;51.35;92380.41;4957156;29;20039;-92
2021/11/08 00:48:33;;;;;;;1.48;0.90;;;;;;;3.24;51.59;92378.03;4959917;28;20039;-92
2021/11/08 00:51:13;;;;;;;1.48;1.00;;;;;;;3.25;51.52;92384.00;4957856;29;20066;-92
2021/11/08 00:54:04;;;;;;;1.15;0.88;;;;;;;3.26;51.58;92380.38;4941710;29;20054;-93
2021/11/08 00:56:52;;;;;;;0.70;0.60;;;;;;;3.24;51.34;92377.25;4977909;28;20035;-92
2021/11/08 00:59:34;;;;;;;1.10;0.80;;;;;;;3.25;51.64;92381.41;4963389;28;20041;-92
2021/11/08 01:02:17;;;;;;;0.88;0.75;;;;;;;3.22;52.46;92384.47;4976443;28;20046;-92
2021/11/08 01:08:05;;;;;;;1.50;1.08;;;;;;;3.37;51.63;92404.53;4953993;29;20051;-92
2021/11/08 01:10:50;;;;;;;1.80;1.05;;;;;;;3.38;51.72;92401.72;4958536;28;20130;-92
2021/11/08 01:13:31;;;;;;;;;;;;;;;;;;;;;
2021/11/08 01:19:06;;;;;;;;;;;;;;;;;;;;;
2021/11/08 01:22:03;;;;;;;;;;;;;;;;;;;;;
2021/11/08 01:24:43;;;;;;;1.83;1.10;;;;;;;3.36;51.84;92364.94;4955321;29;20473;-93
2021/11/08 01:27:25;;;;;;;1.73;1.00;;;;;;;3.40;51.67;92367.81;4956553;29;20577;-92
2021/11/08 01:29:59;;;;;;;2.35;1.10;;;;;;;3.22;51.81;92335.31;4957738;28;20126;-92
2021/11/08 01:32:33;;;;;;;1.75;0.90;;;;;;;3.22;51.48;92336.09;4972754;28;20039;-91
2021/11/08 01:35:25;;;;;;;1.13;0.80;;;;;;;3.25;51.40;92332.25;4957270;29;20043;-92
2021/11/08 01:41:07;;;;;;;1.38;0.82;;;;;;;3.18;51.82;92321.31;4955835;29;20059;-92
2021/11/08 01:43:56;;;;;;;1.42;1.00;;;;;;;3.11;51.76;92317.13;4972230;28;20035;-93
2021/11/08 01:46:34;;;;;;;1.58;0.93;;;;;;;3.10;52.02;92318.13;4940906;29;20110;-92
2021/11/08 01:49:39;;;;;;;1.60;1.08;;;;;;;3.18;51.51;92327.28;4970982;28;20519;-91
2021/11/08 01:52:42;;;;;;;2.22;0.95;;;;;;;3.18;51.38;92316.16;4955881;29;20380;-92
2021/11/08 01:55:50;;;;;;;1.20;0.80;;;;;;;3.15;51.56;92308.84;4951855;29;20048;-93
2021/11/08 01:58:34;;;;;;;1.20;0.80;;;;;;;3.10;51.61;92294.84;4938244;29;20801;-93
2021/11/08 02:01:42;;;;;;;0.65;0.65;;;;;;;3.15;51.67;92281.19;4938109;29;20095;-92
2021/11/08 02:04:20;;;;;;;1.02;0.60;;;;;;;3.33;51.41;92305.91;4941260;28;20058;-91
2021/11/08 02:07:09;;;;;;;;;;;;;;;;;;;;;
2021/11/08 02:09:56;;;;;;;1.33;1.00;;;;;;;3.25;51.86;92285.69;4938046;29;20123;-92
2021/11/08 02:12:34;;;;;;;1.45;0.95;;;;;;;3.26;51.30;92274.28;4952777;29;20143;-93
2021/11/08 02:15:23;;;;;;;;;;;;;;;;;;;;;
2021/11/08 02:18:06;;;;;;;0.73;0.50;;;;;;;3.26;51.05;92262.13;4952314;29;20082;-92
2021/11/08 02:20:34;;;;;;;1.10;0.93;;;;;;;3.37;50.68;92273.34;4955240;29;20079;-91
2021/11/08 02:23:17;;;;;;;1.35;0.77;;;;;;;3.28;50.93;92264.47;4955319;29;20055;-91
2021/11/08 02:26:20;;;;;;;1.23;0.65;;;;;;;3.33;51.62;92277.44;4971823;28;20066;-92
2021/11/08 02:29:26;;;;;;;1.20;0.85;;;;;;;3.24;51.46;92266.00;4955137;29;20054;-92
2021/11/08 02:31:59;;;;;;;0.77;0.60;;;;;;;3.18;50.76;92251.47;4955981;28;20066;-92
2021/11/08 02:35:01;;;;;;;0.50;0.50;;;;;;;3.24;51.30;92276.34;4954584;29;20065;-92
2021/11/08 02:38:10;;;;;;;;;;;;;;;;;;;;;
2021/11/08 02:41:11;;;;;;;;;;;;;;;;;;;;;
2021/11/08 02:43:50;;;;;;;0.55;0.55;;;;;;;3.19;51.74;92253.03;4971250;28;20035;-92
2021/11/08 02:46:42;;;;;;;0.80;0.70;;;;;;;3.10;51.79;92240.53;4970886;28;20031;-91
2021/11/08 02:49:24;;;;;;;0.70;0.70;;;;;;;3.08;51.56;92229.66;4971002;28;20067;-92
2021/11/08 02:55:25;;;;;;;0.68;0.63;;;;;;;3.11;51.62;92239.53;4948436;28;20062;-92
2021/11/08 02:58:31;;;;;;;0.52;0.52;;;;;;;3.15;51.31;92234.63;4955367;29;20043;-93
2021/11/08 03:04:15;;;;;;;1.00;0.70;;;;;;;3.18;50.49;92233.38;4959794;28;20039;-92
2021/11/08 03:07:30;;;;;;;0.65;0.65;;;;;;;3.03;50.69;92211.50;4980974;28;20050;-92
2021/11/08 03:13:38;;;;;;;1.23;0.70;;;;;;;3.09;50.94;92215.72;4979456;28;20054;-93
2021/11/08 03:16:32;;;;;;;0.60;0.60;;;;;;;3.14;51.22;92217.56;4993565;28;20041;-94
2021/11/08 03:22:29;;;;;;;1.45;1.20;;;;;;;2.97;51.50;92196.19;4964710;28;20055;-92
2021/11/08 03:28:19;;;;;;;0.60;0.60;;;;;;;2.96;50.48;92195.44;4971195;28;20055;-93
2021/11/08 03:30:59;;;;;;;0.90;0.77;;;;;;;3.04;50.90;92207.13;4978037;28;20113;-92
2021/11/08 03:33:46;;;;;;;0.65;0.65;;;;;;;3.02;50.20;92202.22;4977151;28;20057;-93
2021/11/08 03:36:56;;;;;;;0.93;0.70;;;;;;;3.12;50.61;92204.84;4979806;28;20129;-93
2021/11/08 03:39:48;;;;;;;1.17;0.90;;;;;;;2.90;50.20;92186.06;4966538;28;20388;-93
2021/11/08 03:42:46;;;;;;;0.95;0.80;;;;;;;3.03;50.20;92196.00;4977369;28;20025;-92
2021/11/08 03:45:18;;;;;;;0.50;0.50;;;;;;;2.90;49.75;92179.09;4974821;28;20059;-92
2021/11/08 03:47:54;;;;;;;0.70;0.65;;;;;;;2.90;49.78;92186.06;4974340;28;20059;-92
2021/11/08 03:50:39;;;;;;;1.20;0.75;;;;;;;2.88;49.98;92177.75;4957682;28;20050;-93
2021/11/08 03:53:44;;;;;;;0.82;0.75;;;;;;;2.87;49.31;92178.81;4973530;28;20059;-92
2021/11/08 03:56:49;;;;;;;0.60;0.60;;;;;;;3.00;48.69;92182.78;4957877;28;20050;-94
2021/11/08 03:59:50;;;;;;;;;;;;;;;;;;;;;
2021/11/08 04:03:01;;;;;;;;;;;;;;;;;;;;;
2021/11/08 04:05:41;;;;;;;1.15;0.77;;;;;;;2.95;50.48;92198.25;4973776;28;20062;-92
2021/11/08 04:08:26;;;;;;;0.50;0.50;;;;;;;2.90;50.84;92201.56;4973717;28;20062;-94
2021/11/08 04:14:12;;;;;;;1.05;0.77;;;;;;;2.80;51.43;92196.31;4967538;28;20043;-92
2021/11/08 04:17:03;;;;;;;1.23;0.80;;;;;;;2.77;51.51;92202.78;4957591;28;20502;-92
2021/11/08 04:19:48;;;;;;;2.28;0.90;;;;;;;2.77;52.83;92202.78;4973906;28;20043;-92
2021/11/08 04:22:39;;;;;;;;;;;;;;;;;;;;;
2021/11/08 04:26:11;;;;;;;0.77;0.70;;;;;;;2.75;52.79;92225.50;4992216;28;20133;-92
2021/11/08 04:29:04;;;;;;;1.05;0.75;;;;;;;2.64;52.86;92221.25;4992501;28;20065;-93
2021/11/08 04:31:45;;;;;;;0.50;0.50;;;;;;;2.67;53.05;92224.13;4992416;28;20392;-92
2021/11/08 04:34:45;;;;;;;0.77;0.73;;;;;;;2.53;53.09;92212.63;4976824;28;20050;-91
2021/11/08 04:43:00;;;;;;;0.90;0.75;;;;;;;2.42;54.22;92216.13;4983598;28;20579;-92
2021/11/08 04:46:26;;;;;;;0.82;0.77;;;;;;;2.44;53.46;92219.25;4981360;28;20042;-92
2021/11/08 04:49:28;;;;;;;2.40;1.08;;;;;;;2.56;54.21;92230.19;4981639;28;20042;-93
2021/11/08 04:55:41;;;;;;;0.80;0.80;;;;;;;2.50;53.36;92223.44;4981145;28;20042;-92
2021/11/08 05:28:36;;;;;;;;;;;;;;;3.00;53.58;92258.56;4996053;28;20038;-91
2021/11/08 05:31:15;;;;;;;1.27;1.02;;;;;;;2.97;54.93;92240.16;4994862;28;20397;-91
2021/11/08 05:34:07;;;;;;;1.60;1.00;;;;;;;2.82;53.78;92246.75;4980742;28;20475;-91
2021/11/08 05:36:55;;;;;;;1.33;0.93;;;;;;;2.67;55.61;92247.38;4966277;28;20046;-91
2021/11/08 05:40:07;;;;;;;0.95;0.82;;;;;;;2.70;55.34;92265.00;4966141;28;20056;-91
2021/11/08 05:42:53;;;;;;;3.05;1.00;;;;;;;2.58;55.62;92268.72;4953532;28;20047;-91
2021/11/08 05:46:01;;;;;;;0.85;0.80;;;;;;;2.49;56.04;92273.53;4981078;28;20044;-90
2021/11/08 08:58:24;;;;;;;6.75;2.97;;;;;;;10.34;43.41;92455.84;4976132;28;20097;-92
2021/11/08 09:08:29;;;;;;;;;;;;;;;;;;;;;
2021/11/08 09:11:30;;;;;;;4.85;2.17;;;;;;;11.15;42.83;92461.59;4939590;28;20696;-92
2021/11/08 09:21:37;;;;;;;24.17;3.70;;;;;;;10.20;47.36;92495.78;4965683;28;20571;-91
2021/11/08 09:24:18;;;;;;;5.70;2.50;;;;;;;10.21;46.93;92489.47;4956938;29;20051;-92
2021/11/08 09:33:47;;;;;;;2.90;1.80;;;;;;;9.02;50.32;92545.94;4958742;29;20172;-92
2021/11/08 09:40:27;;;;;;;7.18;2.05;;;;;;;9.29;48.77;92545.44;4925275;28;20054;-92
2021/11/08 09:47:07;;;;;;;5.35;2.40;;;;;;;10.14;49.34;92572.75;4937405;29;20042;-91
2021/11/08 09:50:02;;;;;;;7.15;3.00;;;;;;;9.88;48.86;92587.19;4930754;29;20040;-92
2021/11/08 09:53:03;;;;;;;14.55;3.90;;;;;;;10.59;46.87;92591.56;4922044;29;20036;-91
2021/11/08 09:55:47;;;;;;;;;;;;;;;;;;;;;
2021/11/08 09:58:56;;;;;;;5.13;2.35;;;;;;;10.31;48.26;92610.78;4936810;29;20393;-91
2021/11/08 10:01:51;;;;;;;4.30;2.33;;;;;;;11.06;45.95;92604.00;4909146;29;20792;-92
2021/11/08 10:04:48;;;;;;;;;;;;;;;11.01;45.81;92618.72;4921645;29;20032;-92
2021/11/08 10:12:23;;;;;;;6.68;2.88;;;;;;;9.88;50.79;92639.47;4879580;29;20056;-93
2021/11/08 10:15:19;;;;;;;6.55;2.60;;;;;;;9.17;53.06;92624.19;4898298;29;20040;-96
2021/11/08 10:21:41;;;;;;;;;;;;;;;;;;;;;
2021/11/08 10:24:46;;;;;;;5.20;3.17;;;;;;;9.31;54.77;92647.84;4912209;29;20047;-95
2021/11/08 10:27:49;;;;;;;5.47;2.80;;;;;;;9.11;55.57;92640.16;4983227;28;20042;-92
2021/11/08 10:34:32;;;;;;;3.05;1.85;;;;;;;9.32;56.53;92674.72;4933128;28;20049;-94
2021/11/08 10:38:04;;;;;;;;;;;;;;;;;;;;;
2021/11/08 10:44:58;;;;;;;;;;;;;;;;;;;;;
2021/11/08 10:48:35;;;;;;;;;;;;;;;;;;;;;
2021/11/08 10:51:59;;;;;;;5.82;3.10;;;;;;;10.88;53.39;92687.53;4935639;29;20048;-95
2021/11/08 10:55:08;;;;;;;;;;;;;;;;;;;;;
2021/11/08 10:58:14;;;;;;;;;;;;;;;;;;;;;
2021/11/08 11:01:22;;;;;;;7.55;3.40;;;;;;;11.94;49.88;92690.69;4976920;28;20137;-94
2021/11/08 11:04:58;;;;;;;5.47;3.03;;;;;;;12.31;48.62;92675.84;4976630;28;20066;-95
2021/11/08 11:08:14;;;;;;;;;;;;;;;;;;;;;
2021/11/08 11:11:24;;;;;;;7.20;2.80;;;;;;;10.22;58.20;92689.06;4975898;28;20039;-95
2021/11/08 11:14:50;;;;;;;;;;;;;;;;;;;;;
2021/11/08 11:18:18;;;;;;;;;;;;;;;;;;;;;
2021/11/08 11:21:37;;;;;;;;;;;;;;;;;;;;;
2021/11/08 11:25:06;;;;;;;;;;;;;;;;;;;;;
2021/11/08 11:28:01;;;;;;;;;;;;;;;;;;;;;
2021/11/08 11:31:37;;;;;;;11.77;6.13;;;;;;;10.42;61.34;92706.41;4961633;28;20038;-95
2021/11/08 11:34:47;;;;;;;4.43;2.28;;;;;;;9.40;65.03;92697.66;4975519;28;20035;-95
2021/11/08 11:37:46;;;;;;;;;;;;;;;;;;;;;
2021/11/08 11:41:11;;;;;;;;;;;;;;;;;;;;;
2021/11/08 11:44:10;;;;;;;3.20;1.48;;;;;;;10.50;54.82;92705.81;4975072;28;20042;-95
2021/11/08 11:47:29;;;;;;;;;;;;;;;;;;;;;
2021/11/08 11:50:51;;;;;;;6.18;2.72;;;;;;;11.41;52.93;92697.00;4956520;28;20091;-93
2021/11/08 11:54:35;;;;;;;;;;;;;;;;;;;;;
2021/11/08 11:57:58;;;;;;;;;;;;;;;;;;;;;
2021/11/08 12:09:08;;;;;;;;;;;;;;;;;;;;;
2021/11/08 12:12:45;;;;;;;5.38;2.47;;;;;;;11.55;53.94;92686.56;4966278;28;20653;-94
2021/11/08 12:16:46;;;;;;;;;;;;;;;;;;;;;
2021/11/08 12:23:56;;;;;;;4.80;2.60;;;;;;;11.82;52.53;92705.00;4978754;28;20145;-93
2021/11/08 12:28:37;;;;;;;;;;;;;;;;;;;;;
2021/11/08 12:35:13;;;;;;;5.65;3.60;;;;;;;12.35;52.38;92690.72;4945818;29;20099;-95
2021/11/08 12:38:44;;;;;;;5.25;3.00;;;;;;;12.20;51.95;92668.16;4975685;28;20074;-95
2021/11/08 12:42:42;;;;;;;;;;;;;;;;;;;;;
2021/11/08 12:51:05;;;;;;;;;;;;;;;;;;;;;
2021/11/08 12:54:58;;;;;;;;;;;;;;;;;;;;;
2021/11/08 12:58:57;;;;;;;;;;;;;;;;;;;;;
2021/11/08 13:02:38;;;;;;;6.35;3.17;;;;;;;12.62;49.52;92665.53;4783613;30;20059;-94
2021/11/08 13:06:07;;;;;;;6.18;3.25;;;;;;;13.25;48.36;92661.28;4829875;29;20050;-94
2021/11/08 13:09:39;;;;;;;7.00;3.30;;;;;;;13.77;47.01;92650.38;4878245;29;20048;-96
2021/11/08 13:13:08;;;;;;;5.22;2.83;;;;;;;12.01;50.42;92639.38;4906167;29;20080;-96
2021/11/08 13:16:41;;;;;;;;;;;;;;;;;;;;;
2021/11/08 13:20:36;;;;;;;;;;;;;;;;;;;;;
2021/11/08 13:23:57;;;;;;;4.63;2.80;;;;;;;11.73;51.79;92659.53;4865157;28;20060;-96
2021/11/08 13:27:28;;;;;;;;;;;;;;;;;;;;;
2021/11/08 13:30:33;;;;;;;3.20;2.00;;;;;;;11.59;50.53;92656.09;4911590;29;20048;-95
2021/11/08 13:36:25;;;;;;;4.85;2.53;;;;;;;11.56;50.97;92661.91;4981763;28;20063;-95
2021/11/08 13:39:03;;;;;;;3.80;2.30;;;;;;;11.75;50.05;92665.25;4992855;28;20039;-95
2021/11/08 13:42:13;;;;;;;;;;;;;;;;;;;;;
2021/11/08 13:45:56;;;;;;;;;;;;;;;;;;;;;
2021/11/08 13:48:46;;;;;;;;;;;;;;;;;;;;;
2021/11/08 13:52:13;;;;;;;5.15;2.30;;;;;;;12.18;50.70;92644.06;4985612;28;20047;-95
2021/11/08 13:55:07;;;;;;;14.63;3.00;;;;;;;12.40;54.39;92653.88;4943796;28;20142;-94
2021/11/08 13:58:24;;;;;;;6.57;2.88;;;;;;;11.22;58.72;92655.09;4977282;28;20058;-96
2021/11/08 14:01:56;;;;;;;;;;;;;;;;;;;;;
2021/11/08 14:04:49;;;;;;;4.88;2.72;;;;;;;11.87;55.58;92657.72;4976104;28;20459;-95
2021/11/08 14:07:45;;;;;;;7.20;3.20;;;;;;;10.75;60.21;92646.34;4943607;28;20042;-95
2021/11/08 14:10:52;;;;;;;4.72;2.28;;;;;;;10.41;58.06;92673.47;4973962;28;20047;-94
2021/11/08 14:13:53;;;;;;;;;;;;;;;;;;;;;
2021/11/08 14:16:45;;;;;;;6.72;3.40;;;;;;;10.51;57.03;92649.78;4956130;29;20106;-96
2021/11/08 14:19:31;;;;;;;12.93;6.65;;;;;;;10.37;59.64;92654.16;4957118;28;20047;-96
2021/11/08 14:22:19;;;;;;;5.90;2.67;;;;;;;10.27;58.78;92657.63;4948453;28;20057;-95
2021/11/08 14:28:55;;;;;;;;;;;;;;;;;;;;;
2021/11/08 14:32:19;;;;;;;;;;;;;;;;;;;;;
2021/11/08 14:38:48;;;;;;;;;;;;;;;;;;;;;
2021/11/08 14:41:51;;;;;;;10.40;5.00;;;;;;;9.13;67.54;92661.56;4984295;28;20521;-94
2021/11/08 14:45:04;;;;;;;7.82;4.03;;;;;;;9.11;68.65;92677.50;4981858;28;20050;-95
2021/11/08 14:48:10;;;;;;;5.53;2.97;;;;;;;9.29;64.78;92676.06;4995382;28;20520;-94
2021/11/08 14:51:18;;;;;;;4.22;2.50;;;;;;;9.31;63.65;92678.41;4962469;28;20046;-95
2021/11/08 14:54:14;;;;;;;;;;;;;;;;;;;;;
2021/11/08 15:09:10;;;;;;;;;;;;;;;;;;;;;
2021/11/08 15:13:03;;;;;;;;;;;;;;;;;;;;;
2021/11/08 15:16:21;;;;;;;7.40;3.40;;;;;;;8.91;67.46;92691.44;4972374;28;20043;-95
2021/11/08 15:19:22;;;;;;;13.25;2.97;;;;;;;8.50;68.65;92677.84;4959241;28;20133;-94
2021/11/08 15:22:34;;;;;;;;;;;;;;;;;;;;;
2021/11/08 15:25:52;;;;;;;;;;;;;;;;;;;;;
2021/11/08 15:48:43;;;;;;;;;;;;;;;7.27;71.98;92704.13;4997024;23;20073;-76
2021/11/08 15:51:09;;;;;;;5.78;2.95;;;;;;;7.20;72.79;92699.16;4985142;28;19918;-76
2021/11/08 15:53:36;;;;;;;6.93;2.92;;;;;;;7.19;72.34;92702.03;4954162;28;20026;-75
2021/11/08 15:56:02;;;;;;;5.70;2.75;;;;;;;7.11;72.18;92699.94;4972711;28;20038;-77
2021/11/08 15:58:29;;;;;;;5.63;3.05;;;;;;;7.04;72.33;92708.00;4970600;28;20035;-76
2021/11/08 16:00:55;;;;;;;5.50;2.75;;;;;;;6.94;72.45;92713.97;4973681;28;20039;-76
2021/11/08 16:03:22;;;;;;;5.28;2.92;;;;;;;6.80;72.32;92712.91;4955279;28;20353;-76
2021/11/08 16:05:48;;;;;;;5.82;2.95;;;;;;;6.66;73.37;92712.59;4971313;28;20045;-76
2021/11/08 16:08:17;;;;;;;4.32;2.40;;;;;;;6.59;73.64;92723.25;4972984;28;20408;-76
2021/11/08 16:10:43;;;;;;;4.53;2.75;;;;;;;6.53;74.01;92718.28;4954499;28;20138;-76
2021/11/08 16:13:12;;;;;;;8.75;2.60;;;;;;;6.45;74.20;92717.75;4954687;28;20047;-76
2021/11/08 16:15:43;;;;;;;5.07;2.88;;;;;;;6.36;74.04;92721.88;4982530;28;20050;-76
2021/11/08 16:18:11;;;;;;;8.27;2.92;;;;;;;6.29;74.05;92731.72;4979785;28;20481;-76
2021/11/08 16:20:38;;;;;;;5.68;3.00;;;;;;;6.21;74.85;92727.78;4937623;29;20031;-76
2021/11/08 16:23:05;;;;;;;5.55;2.88;;;;;;;6.13;75.86;92723.06;4955197;28;20096;-76
2021/11/08 16:25:31;;;;;;;6.95;3.28;;;;;;;6.09;76.16;92724.59;4963097;28;20542;-77
2021/11/08 16:27:57;;;;;;;8.68;4.68;;;;;;;6.00;76.33;92721.69;4966675;28;20031;-77
2021/11/08 16:30:23;;;;;;;8.73;4.55;;;;;;;5.94;76.56;92721.88;4947365;28;20033;-78
2021/11/08 16:33:20;;;;;;;5.60;3.42;;;;;;;5.88;76.77;92731.47;4976044;28;20042;-77
2021/11/08 16:35:48;;;;;;;8.73;3.45;;;;;;;5.86;76.75;92725.75;4964141;28;20057;-77
2021/11/08 16:38:20;;;;;;;7.90;3.03;;;;;;;5.74;76.58;92725.13;4986306;28;20027;-77
2021/11/08 16:40:52;;;;;;;5.32;3.03;;;;;;;5.67;76.66;92720.16;4975885;28;20026;-76
2021/11/08 16:43:20;;;;;;;7.03;2.92;;;;;;;5.62;76.96;92723.50;4986993;28;20109;-76
2021/11/08 16:45:54;;;;;;;6.13;3.38;;;;;;;5.53;76.96;92719.03;4978867;28;20496;-76
2021/11/08 16:48:22;;;;;;;6.60;3.25;;;;;;;5.49;77.19;92721.31;4995261;28;20140;-76
2021/11/08 16:50:50;;;;;;;9.23;3.65;;;;;;;5.48;77.30;92727.56;4993245;28;20049;-76
2021/11/08 16:53:16;;;;;;;6.40;3.55;;;;;;;5.43;77.14;92724.94;4997082;28;20038;-76
2021/11/08 16:55:42;;;;;;;7.53;3.83;;;;;;;5.38;77.82;92728.28;5007647;28;20038;-75
2021/11/08 16:58:11;;;;;;;6.63;3.78;;;;;;;5.31;78.36;92725.09;5010182;28;20036;-75
2021/11/08 17:00:38;;;;;;;5.97;2.97;;;;;;;5.27;77.99;92731.81;4991397;28;20042;-75
2021/11/08 17:03:05;;;;;;;6.40;3.40;;;;;;;5.21;78.25;92738.75;4993875;28;20476;-75
2021/11/08 17:05:40;;;;;;;5.22;2.80;;;;;;;5.15;78.06;92739.75;5005243;28;20547;-76
2021/11/08 17:08:08;;;;;;;7.63;3.08;;;;;;;5.09;78.19;92743.34;4977032;28;20050;-74
2021/11/08 17:10:43;;;;;;;8.18;3.55;;;;;;;5.03;78.40;92743.53;4992573;28;20032;-75
2021/11/08 17:13:13;;;;;;;13.80;2.97;;;;;;;5.03;78.67;92746.91;4994782;28;20057;-74
2021/11/08 17:15:40;;;;;;;6.53;3.35;;;;;;;4.98;78.41;92752.06;4987652;28;20041;-76
2021/11/08 17:18:07;;;;;;;5.97;3.80;;;;;;;4.98;79.03;92755.44;5004940;28;20041;-76
2021/11/08 17:20:35;;;;;;;9.85;3.63;;;;;;;4.94;79.54;92754.34;4977552;28;20035;-76
2021/11/08 17:23:01;;;;;;;6.20;3.22;;;;;;;4.94;80.07;92756.94;4992772;28;20391;-76
2021/11/08 17:25:29;;;;;;;8.88;3.60;;;;;;;4.88;80.51;92751.94;4993110;28;20073;-75
2021/11/08 17:27:55;;;;;;;7.40;3.97;;;;;;;4.97;80.25;92755.66;4993123;28;20035;-75
2021/11/08 17:30:22;;;;;;;7.22;3.88;;;;;;;4.87;80.63;92751.16;4992835;28;20125;-75
2021/11/08 17:32:48;;;;;;;7.25;3.72;;;;;;;4.82;80.74;92748.53;4978207;28;20053;-75
2021/11/08 17:35:14;;;;;;;12.90;7.22;;;;;;;4.80;81.35;92753.94;4992630;28;20528;-81
2021/11/08 17:37:43;;;;;;;13.25;8.07;;;;;;;4.80;81.21;92753.94;4994328;28;20392;-80
2021/11/08 17:40:13;;;;;;;10.15;5.68;;;;;;;4.75;81.48;92759.09;4975896;28;20179;-80
2021/11/08 17:42:40;;;;;;;10.77;4.50;;;;;;;4.71;81.61;92758.00;4992152;28;20049;-81
2021/11/08 17:45:08;;;;;;;9.93;5.60;;;;;;;4.68;81.72;92755.09;4976689;28;20118;-80
2021/11/08 17:47:35;;;;;;;9.82;5.90;;;;;;;4.66;81.85;92762.34;4995169;28;20046;-78
2021/11/08 17:50:08;;;;;;;8.02;5.10;;;;;;;4.70;81.97;92760.84;4999186;28;20053;-81
2021/11/08 17:52:35;;;;;;;7.43;3.72;;;;;;;4.63;81.50;92761.00;4995632;28;20022;-78
2021/11/08 17:55:03;;;;;;;7.18;4.40;;;;;;;4.62;81.54;92769.06;4998278;28;20034;-80
2021/11/08 17:57:29;;;;;;;8.57;4.68;;;;;;;4.56;82.02;92770.78;4988539;28;21776;-80
2021/11/08 17:59:56;;;;;;;10.68;4.85;;;;;;;4.53;82.07;92766.09;4998653;28;20027;-80
2021/11/08 18:02:21;;;;;;;9.65;3.97;;;;;;;4.49;82.21;92772.78;5002448;28;20336;-80
2021/11/08 18:04:48;;;;;;;7.53;4.70;;;;;;;4.50;82.69;92769.97;5004471;28;20041;-81
2021/11/08 18:07:14;;;;;;;6.65;4.10;;;;;;;4.44;82.47;92777.91;4984185;28;20058;-80
2021/11/08 18:09:40;;;;;;;8.15;4.68;;;;;;;4.41;82.63;92773.19;4995728;28;20331;-80
2021/11/08 18:12:06;;;;;;;8.30;4.72;;;;;;;4.35;82.84;92786.09;4990456;28;20038;-80
2021/11/08 18:14:32;;;;;;;8.50;4.75;;;;;;;4.29;82.93;92783.69;4997388;28;20038;-80
2021/11/08 18:16:58;;;;;;;10.18;5.78;;;;;;;4.25;83.26;92780.00;4996604;28;20089;-82
2021/11/08 18:19:27;;;;;;;21.98;11.02;;;;;;;4.25;83.26;92780.78;4997021;28;20062;-80
2021/11/08 18:24:33;;;;;;;11.80;5.57;;;;;;;4.15;83.16;92789.22;4991872;28;20113;-82
2021/11/08 18:27:01;;;;;;;11.27;5.72;;;;;;;4.11;82.84;92793.28;4988570;28;20496;-80
2021/11/08 18:29:30;;;;;;;11.18;5.25;;;;;;;4.09;82.96;92797.94;4978493;28;20022;-79
2021/11/08 18:31:57;;;;;;;10.05;5.15;;;;;;;4.08;83.05;92793.78;4981998;28;20045;-78
2021/11/08 18:34:25;;;;;;;7.40;4.57;;;;;;;4.05;83.34;92790.88;4994213;28;20062;-79
2021/11/08 18:37:00;;;;;;;8.90;4.57;;;;;;;4.04;83.50;92794.50;4985494;28;20044;-79
2021/11/08 18:39:36;;;;;;;6.97;3.95;;;;;;;4.01;83.30;92808.72;4992554;28;20046;-80
2021/11/08 18:42:03;;;;;;;7.95;4.35;;;;;;;3.97;83.77;92808.38;4978726;28;20035;-80
2021/11/08 18:44:29;;;;;;;10.65;3.90;;;;;;;3.96;83.95;92804.25;4976996;28;20436;-80
2021/11/08 18:46:56;;;;;;;6.35;3.63;;;;;;;3.94;83.98;92811.47;4993772;28;20054;-80
2021/11/08 18:49:26;;;;;;;6.85;3.42;;;;;;;3.98;84.26;92819.53;4996402;28;20503;-79
2021/11/08 18:51:55;;;;;;;7.65;3.60;;;;;;;3.96;84.44;92819.78;4993531;28;20488;-79
2021/11/08 18:54:25;;;;;;;5.75;3.65;;;;;;;3.99;84.44;92828.88;4976754;28;20036;-80
2021/11/08 18:56:58;;;;;;;7.43;3.35;;;;;;;3.98;84.54;92819.53;4994740;28;20046;-78
2021/11/08 18:59:25;;;;;;;9.30;4.55;;;;;;;3.98;84.68;92822.13;4978802;28;20030;-79
2021/11/08 19:01:56;;;;;;;10.77;4.70;;;;;;;3.92;84.69;92829.03;4995782;28;20415;-80
2021/11/08 19:04:30;;;;;;;9.85;5.03;;;;;;;3.89;85.08;92824.31;4994747;28;20069;-80
2021/11/08 19:09:43;;;;;;;8.48;4.18;;;;;;;3.88;85.33;92822.75;4994756;28;20443;-80
2021/11/08 19:12:12;;;;;;;11.38;4.95;;;;;;;3.87;85.36;92821.22;4979416;28;20040;-80
2021/11/08 19:14:38;;;;;;;13.40;5.90;;;;;;;3.90;85.79;92825.91;4995683;28;20057;-80
2021/11/08 19:17:07;;;;;;;11.35;5.55;;;;;;;3.86;85.73;92822.22;4979633;28;20551;-79
2021/11/08 19:19:34;;;;;;;13.88;7.30;;;;;;;3.86;86.33;92829.19;4994859;28;20077;-77
2021/11/08 19:22:01;;;;;;;9.13;5.75;;;;;;;3.82;86.09;92831.47;4979199;28;20067;-80
2021/11/08 19:24:27;;;;;;;9.70;4.88;;;;;;;3.79;86.48;92831.94;4963168;28;20091;-79
2021/11/08 19:26:55;;;;;;;9.02;4.47;;;;;;;3.76;86.67;92824.66;4979197;28;20465;-80
2021/11/08 19:29:46;;;;;;;8.23;4.45;;;;;;;3.71;86.58;92833.09;4979205;28;20502;-81
2021/11/08 19:32:17;;;;;;;9.77;4.43;;;;;;;3.70;86.88;92835.94;4996238;28;20035;-81
2021/11/08 19:34:54;;;;;;;7.00;4.05;;;;;;;3.69;86.94;92829.19;4994310;28;20561;-81
2021/11/08 19:40:05;;;;;;;6.85;3.75;;;;;;;3.62;87.05;92839.69;4994913;28;20044;-81
2021/11/08 19:42:31;;;;;;;7.15;4.28;;;;;;;3.64;87.59;92852.41;4991142;28;20496;-80
2021/11/08 19:45:00;;;;;;;7.57;3.60;;;;;;;3.62;87.31;92846.69;4993833;28;20049;-80
2021/11/08 19:47:27;;;;;;;6.45;3.22;;;;;;;3.62;87.46;92852.63;4993490;28;20039;-80
2021/11/08 19:49:52;;;;;;;7.53;4.40;;;;;;;3.65;89.36;92854.00;4981582;28;20038;-80
2021/11/08 19:52:18;;;;;;;8.25;4.40;;;;;;;3.76;90.52;92850.56;4993809;28;20041;-80
2021/11/08 19:54:43;;;;;;;6.68;3.92;;;;;;;3.78;90.45;92869.22;4992843;28;20040;-81
2021/11/08 19:57:09;;;;;;;8.30;4.55;;;;;;;3.77;90.37;92867.66;4993173;28;20445;-80
2021/11/08 19:59:35;;;;;;;11.55;4.70;;;;;;;3.74;90.13;92868.13;4993079;28;20034;-80
2021/11/08 20:02:01;;;;;;;12.80;7.25;;;;;;;3.74;89.33;92868.13;5004674;28;20244;-80
2021/11/08 20:04:27;;;;;;;17.92;7.72;;;;;;;3.71;88.75;92876.34;5007284;28;20042;-80
2021/11/08 20:06:59;;;;;;;9.48;6.10;;;;;;;3.68;88.69;92874.22;4994918;28;20038;-80
2021/11/08 20:09:24;;;;;;;12.05;5.90;;;;;;;3.64;88.57;92883.47;4997799;28;20064;-80
2021/11/08 20:11:50;;;;;;;7.78;4.78;;;;;;;3.60;88.56;92888.31;4983265;28;20065;-80
2021/11/08 20:14:24;;;;;;;8.73;4.07;;;;;;;3.58;88.51;92890.41;4978148;28;20061;-80
2021/11/08 20:16:50;;;;;;;10.25;4.25;;;;;;;3.47;88.64;92889.44;4998214;28;20042;-78
2021/11/08 20:19:16;;;;;;;8.85;4.78;;;;;;;3.47;88.67;92894.59;4996972;28;20018;-79
2021/11/08 20:21:43;;;;;;;9.68;5.03;;;;;;;3.52;88.47;92896.50;4995048;28;20057;-79
2021/11/08 20:24:11;;;;;;;9.02;5.07;;;;;;;3.46;88.36;92905.97;4997371;28;20093;-78
2021/11/08 20:26:38;;;;;;;9.27;5.03;;;;;;;3.42;88.42;92902.25;4997842;28;20047;-79
2021/11/08 20:29:10;;;;;;;9.40;4.38;;;;;;;3.41;88.60;92910.28;4997800;28;20038;-80
2021/11/08 20:32:01;;;;;;;9.38;4.53;;;;;;;3.38;88.46;92908.94;4997544;28;20317;-78
2021/11/08 20:40:07;;;;;;;6.43;3.92;;;;;;;3.28;88.97;92925.03;4989420;28;20053;-79
2021/11/08 20:53:02;;;;;;;7.18;4.30;;;;;;;3.21;90.26;92937.31;4977004;28;20042;-78
2021/11/08 21:00:53;;;;;;;9.68;3.95;;;;;;;3.23;89.57;92937.88;4980331;28;20031;-77
2021/11/08 21:03:32;;;;;;;7.40;3.67;;;;;;;3.25;89.31;92945.44;4972112;28;20523;-79
2021/11/08 21:11:40;;;;;;;9.30;4.07;;;;;;;3.31;88.65;92955.66;4966982;28;20043;-79
2021/11/08 21:14:07;;;;;;;6.65;4.03;;;;;;;3.35;88.60;92958.53;4976255;28;20109;-79
2021/11/08 21:16:34;;;;;;;7.18;3.97;;;;;;;3.36;88.28;92960.13;4977055;28;20570;-79
2021/11/08 21:19:00;;;;;;;8.02;4.85;;;;;;;3.43;88.67;92965.97;4960024;28;20038;-78
2021/11/08 21:21:29;;;;;;;7.60;4.15;;;;;;;3.49;88.94;92961.66;4960320;28;20031;-79
2021/11/08 21:23:56;;;;;;;9.50;4.00;;;;;;;3.52;88.71;92961.22;4983873;28;20114;-82
2021/11/08 21:26:28;;;;;;;7.30;4.20;;;;;;;3.54;88.56;92965.13;4975037;28;20074;-80